Photometre #648[NE_1.6] OHP_OBSERVATOIRE AOT

File : 20220925_648.hum

25/09/2022,06:17:18,TEMP=10.6,BA=5.60,STAT.A=3.0,ExtBa=13.91
25/09/2022,06:20:53,TEMP=11.2,BA=5.60,STAT.A=3.0,ExtBa=13.84
25/09/2022,06:25:04,TEMP=11.5,BA=5.60,STAT.A=3.0,ExtBa=13.79
25/09/2022,06:30:03,TEMP=11.6,BA=5.60,STAT.A=3.0,ExtBa=13.79
25/09/2022,06:36:04,TEMP=11.9,BA=5.60,STAT.A=3.0,ExtBa=13.80
25/09/2022,06:43:29,TEMP=12.1,BA=5.60,STAT.A=3.0,ExtBa=13.84
25/09/2022,06:52:53,TEMP=12.3,BA=5.60,STAT.B=3.0,ExtBa=13.88
25/09/2022,07:03:19,TEMP=13.0,BA=5.52,STAT.A=3.0,ExtBa=13.09
25/09/2022,07:05:29,TEMP=13.3,BA=5.52,STAT.A=3.0,ExtBa=13.14
25/09/2022,07:08:06,TEMP=13.4,BA=5.52,STAT.A=3.0,ExtBa=13.21
25/09/2022,07:14:35,TEMP=13.3,BA=5.60,STAT.A=3.0,ExtBa=13.49
25/09/2022,07:22:02,TEMP=13.6,BA=5.60,STAT.C=3.0,ExtBa=13.61
25/09/2022,07:30:43,TEMP=14.0,BA=5.60,STAT.A=3.0,ExtBa=13.72
25/09/2022,07:40:59,TEMP=14.0,BA=5.60,STAT.A=3.0,ExtBa=13.81
25/09/2022,07:53:20,TEMP=13.9,BA=5.60,STAT.A=3.0,ExtBa=13.89
25/09/2022,08:08:38,TEMP=14.3,BA=5.60,STAT.A=3.0,ExtBa=13.91
25/09/2022,08:28:10,TEMP=14.8,BA=5.60,STAT.B=3.0,ExtBa=13.93
25/09/2022,08:30:15,TEMP=15.4,BA=5.56,STAT.F,ExtBa=13.82
25/09/2022,08:44:33,TEMP=15.3,BA=5.60,STAT.D=3.0,ExtBa=13.92
25/09/2022,08:59:33,TEMP=15.5,BA=5.60,STAT.D=3.0,ExtBa=13.92
25/09/2022,09:14:33,TEMP=15.4,BA=5.60,STAT.D=3.0,ExtBa=13.91
25/09/2022,09:29:35,TEMP=15.4,BA=5.60,STAT.F,ExtBa=13.89
25/09/2022,09:44:33,TEMP=16.0,BA=5.60,STAT.D=3.0,ExtBa=13.90
25/09/2022,09:59:33,TEMP=18.5,BA=5.60,STAT.D=3.0,ExtBa=13.89
25/09/2022,10:14:34,TEMP=20.3,BA=5.60,STAT.D=3.0,ExtBa=13.89
25/09/2022,10:29:35,TEMP=20.7,BA=5.60,STAT.F,ExtBa=13.88
25/09/2022,10:46:52,TEMP=20.8,BA=5.44,STAT.D=3.0,ExtBa=12.89
25/09/2022,10:59:34,TEMP=21.9,BA=5.60,STAT.D=3.0,ExtBa=13.58
25/09/2022,11:14:34,TEMP=21.1,BA=5.60,STAT.D=3.0,ExtBa=13.81
25/09/2022,11:29:35,TEMP=23.1,BA=5.60,STAT.F,ExtBa=13.88
25/09/2022,11:46:35,TEMP=23.7,BA=5.44,STAT.D=3.0,ExtBa=12.92
25/09/2022,11:59:34,TEMP=22.7,BA=5.60,STAT.D=3.0,ExtBa=13.58
25/09/2022,12:14:11,TEMP=23.1,BA=5.60,STAT.h
25/09/2022,12:29:35,TEMP=19.6,BA=5.60,STAT.F,ExtBa=13.88
25/09/2022,12:44:34,TEMP=18.9,BA=5.60,STAT.D=3.0,ExtBa=13.88
25/09/2022,12:59:34,TEMP=19.7,BA=5.60,STAT.D=3.0,ExtBa=13.87
25/09/2022,13:14:33,TEMP=21.9,BA=5.60,STAT.D=3.0,ExtBa=13.87
25/09/2022,13:29:35,TEMP=22.3,BA=5.60,STAT.F,ExtBa=13.85
25/09/2022,13:44:33,TEMP=21.2,BA=5.40,STAT.D=3.0,ExtBa=13.24
25/09/2022,13:59:33,TEMP=19.9,BA=5.60,STAT.D=3.0,ExtBa=13.74
25/09/2022,14:14:33,TEMP=21.5,BA=5.60,STAT.D=3.0,ExtBa=13.86
25/09/2022,14:29:35,TEMP=19.9,BA=5.60,STAT.F,ExtBa=13.87
25/09/2022,14:31:37,TEMP=20.0,BA=5.48,STAT.B=3.0,ExtBa=13.80
25/09/2022,14:50:31,TEMP=18.8,BA=5.60,STAT.A=3.0,ExtBa=13.87
25/09/2022,15:05:48,TEMP=19.4,BA=5.60,STAT.A=3.0,ExtBa=13.85
25/09/2022,15:18:09,TEMP=19.7,BA=5.60,STAT.A=3.0,ExtBa=13.85
25/09/2022,15:28:25,TEMP=20.2,BA=5.56,STAT.A=3.0,ExtBa=13.85
25/09/2022,15:37:06,TEMP=19.9,BA=5.44,STAT.C=3.0,ExtBa=13.85
25/09/2022,15:54:30,TEMP=20.4,BA=5.40,STAT.A=3.0,ExtBa=12.89
25/09/2022,15:56:35,TEMP=20.6,BA=5.40,STAT.A=3.0,ExtBa=13.01
25/09/2022,15:58:41,TEMP=20.6,BA=5.40,STAT.A=3.0,ExtBa=13.07
25/09/2022,16:01:45,TEMP=20.1,BA=5.40,STAT.A=3.0,ExtBa=13.15
25/09/2022,16:06:15,TEMP=19.6,BA=5.40,STAT.B=3.0,ExtBa=13.28
25/09/2022,16:17:02,TEMP=20.0,BA=5.44,STAT.A=3.0,ExtBa=12.91
25/09/2022,16:23:04,TEMP=19.8,BA=5.60,STAT.A=3.0,ExtBa=13.29
25/09/2022,16:29:05,TEMP=19.9,BA=5.60,STAT.A=3.0,ExtBa=13.46
25/09/2022,16:34:04,TEMP=20.0,BA=5.44,STAT.A=3.0,ExtBa=13.53
25/09/2022,16:38:15,TEMP=20.0,BA=5.44,STAT.A=3.0,ExtBa=13.53
25/09/2022,16:41:50,TEMP=19.9,BA=5.52,STAT.A=3.0,ExtBa=13.54